Time;durP1;ratioP1;P1;durP2;ratioP2;P2;SDS_P1;SDS_P2;PMS_P1;PMS_P2;Temp;Humidity;BMP_temperature;BMP_pressure;BME280_temperature;BME280_humidity;BME280_pressure;Samples;Min_cycle;Max_cycle;Signal;HPM_P1;HPM_P2
2022/02/08 00:01:39;;;;;;;0.30;0.30;;;0.80;99.90;;;;;;5034643;28;20972;-78
2022/02/08 00:04:06;;;;;;;0.30;0.30;;;0.80;99.90;;;;;;5034859;28;20405;-78
2022/02/08 00:06:41;;;;;;;0.30;0.30;;;0.90;99.90;;;;;;5034704;28;20475;-78
2022/02/08 00:09:09;;;;;;;0.30;0.30;;;0.90;99.90;;;;;;5034853;28;20564;-78
2022/02/08 00:11:36;;;;;;;0.30;0.30;;;0.80;99.90;;;;;;5034716;28;20458;-78
2022/02/08 00:14:04;;;;;;;0.30;0.30;;;0.80;99.90;;;;;;5034614;28;20447;-78
2022/02/08 00:16:31;;;;;;;0.30;0.30;;;0.80;99.90;;;;;;5034774;28;20843;-78
2022/02/08 00:18:59;;;;;;;0.30;0.30;;;0.80;99.90;;;;;;5034475;28;20454;-78
2022/02/08 00:21:26;;;;;;;0.30;0.30;;;0.90;99.90;;;;;;5034493;28;20474;-78
2022/02/08 00:23:53;;;;;;;0.30;0.30;;;1.00;99.90;;;;;;5034430;28;20466;-78
2022/02/08 00:26:19;;;;;;;0.30;0.30;;;1.10;99.90;;;;;;5034014;28;20473;-78
2022/02/08 00:28:46;;;;;;;0.30;0.30;;;1.10;99.90;;;;;;5034117;28;20442;-78
2022/02/08 00:31:13;;;;;;;0.30;0.30;;;1.20;99.90;;;;;;5034326;28;20439;-78
2022/02/08 00:33:40;;;;;;;0.30;0.20;;;1.20;99.90;;;;;;5034268;28;20446;-78
2022/02/08 00:36:08;;;;;;;0.30;0.20;;;1.30;99.90;;;;;;5034140;28;20473;-78
2022/02/08 00:38:36;;;;;;;0.30;0.30;;;1.40;99.90;;;;;;5034159;28;20454;-78
2022/02/08 00:41:03;;;;;;;0.30;0.20;;;1.40;99.90;;;;;;5033736;28;20950;-78
2022/02/08 00:43:36;;;;;;;0.30;0.30;;;1.40;99.90;;;;;;5034076;28;20443;-78
2022/02/08 00:46:08;;;;;;;0.30;0.30;;;1.50;99.90;;;;;;5034024;28;20471;-78
2022/02/08 00:48:40;;;;;;;0.30;0.30;;;1.50;99.90;;;;;;5034060;28;20435;-78
2022/02/08 00:51:09;;;;;;;0.30;0.30;;;1.50;99.90;;;;;;5034001;28;20409;-78
2022/02/08 00:53:36;;;;;;;0.30;0.30;;;1.50;99.90;;;;;;5033710;28;20520;-78
2022/02/08 00:56:04;;;;;;;0.30;0.30;;;1.50;99.90;;;;;;5033833;28;20477;-78
2022/02/08 00:58:30;;;;;;;0.30;0.30;;;1.50;99.90;;;;;;5033513;28;20438;-78
2022/02/08 01:00:58;;;;;;;0.30;0.30;;;1.50;99.90;;;;;;5033465;28;20485;-78
2022/02/08 01:03:24;;;;;;;0.30;0.30;;;1.50;99.90;;;;;;5033473;28;20622;-78
2022/02/08 01:06:02;;;;;;;0.30;0.30;;;1.50;99.90;;;;;;5033360;28;20969;-78
2022/02/08 01:08:32;;;;;;;0.40;0.40;;;1.50;99.90;;;;;;5033437;28;20435;-78
2022/02/08 01:10:59;;;;;;;0.30;0.30;;;1.50;99.90;;;;;;5032966;28;20435;-78
2022/02/08 01:13:26;;;;;;;0.30;0.20;;;1.50;99.90;;;;;;5033641;28;20447;-78
2022/02/08 01:15:55;;;;;;;0.40;0.30;;;1.50;99.90;;;;;;5033216;28;20844;-78
2022/02/08 01:18:22;;;;;;;0.30;0.30;;;1.50;99.90;;;;;;5033586;28;20442;-78
2022/02/08 01:20:50;;;;;;;0.30;0.30;;;1.50;99.90;;;;;;5033419;28;20526;-78
2022/02/08 01:23:17;;;;;;;0.30;0.30;;;1.50;99.90;;;;;;5033504;28;20450;-78
2022/02/08 01:25:49;;;;;;;0.30;0.30;;;1.50;99.90;;;;;;5033378;28;20469;-78
2022/02/08 01:28:23;;;;;;;0.30;0.30;;;1.50;99.90;;;;;;5033461;28;20522;-78
2022/02/08 01:31:02;;;;;;;0.30;0.20;;;1.50;99.90;;;;;;5033492;28;20422;-78
2022/02/08 01:39:19;;;;;;;0.60;0.60;;;1.40;99.90;;;;;;5033302;28;20472;-78
2022/02/08 01:44:38;;;;;;;0.30;0.30;;;1.30;99.90;;;;;;5025687;28;20437;-79
2022/02/08 01:47:15;;;;;;;0.53;0.40;;;1.30;99.90;;;;;;5033188;28;20473;-79
2022/02/08 01:49:57;;;;;;;0.30;0.20;;;1.30;99.90;;;;;;5033288;28;20521;-79
2022/02/08 01:52:25;;;;;;;0.30;0.30;;;1.30;99.90;;;;;;5033163;28;20453;-79
2022/02/08 01:54:52;;;;;;;0.30;0.30;;;1.30;99.90;;;;;;5032792;28;20478;-78
2022/02/08 01:57:20;;;;;;;0.30;0.30;;;1.30;99.90;;;;;;5032800;28;20455;-78
2022/02/08 01:59:47;;;;;;;0.30;0.30;;;1.40;99.90;;;;;;5033015;28;20490;-78
2022/02/08 02:02:14;;;;;;;0.30;0.20;;;1.40;99.90;;;;;;5032766;28;20454;-78
2022/02/08 02:04:41;;;;;;;0.30;0.20;;;1.40;99.90;;;;;;5033071;28;20481;-78
2022/02/08 02:07:08;;;;;;;0.30;0.20;;;1.50;99.90;;;;;;5032985;28;20462;-78
2022/02/08 02:09:34;;;;;;;0.30;0.30;;;1.50;99.90;;;;;;5033021;28;20447;-78
2022/02/08 02:12:01;;;;;;;0.30;0.30;;;1.50;99.90;;;;;;5032996;28;20451;-79
2022/02/08 02:14:36;;;;;;;0.30;0.30;;;1.50;99.90;;;;;;5032670;28;20450;-79
2022/02/08 02:17:03;;;;;;;0.30;0.20;;;1.50;99.90;;;;;;5032904;28;20476;-79
2022/02/08 02:19:30;;;;;;;0.30;0.27;;;1.50;99.90;;;;;;5032574;28;20443;-78
2022/02/08 02:21:58;;;;;;;0.30;0.30;;;1.50;99.90;;;;;;5034700;28;20946;-78
2022/02/08 02:24:26;;;;;;;0.30;0.20;;;1.50;99.90;;;;;;5036661;28;20453;-78
2022/02/08 02:26:56;;;;;;;0.30;0.20;;;1.50;99.90;;;;;;5036572;28;20471;-78
2022/02/08 02:29:23;;;;;;;1.37;0.40;;;1.60;99.90;;;;;;5036607;28;20810;-78
2022/02/08 02:31:50;;;;;;;0.30;0.30;;;1.60;99.90;;;;;;5036259;28;20457;-78
2022/02/08 02:34:19;;;;;;;0.30;0.20;;;1.60;99.90;;;;;;5036572;28;20817;-78
2022/02/08 02:36:46;;;;;;;0.30;0.20;;;1.70;99.90;;;;;;5036073;28;20838;-78
2022/02/08 02:39:14;;;;;;;0.30;0.30;;;1.70;99.90;;;;;;5036457;28;20450;-78
2022/02/08 02:41:43;;;;;;;0.30;0.30;;;1.70;99.90;;;;;;5036037;28;20463;-79
2022/02/08 02:44:11;;;;;;;0.30;0.20;;;1.70;99.90;;;;;;5036372;28;20454;-78
2022/02/08 02:46:39;;;;;;;0.30;0.30;;;1.70;99.90;;;;;;5036246;28;20832;-78
2022/02/08 02:49:07;;;;;;;0.30;0.30;;;1.70;99.90;;;;;;5036054;28;20446;-79
2022/02/08 02:51:34;;;;;;;0.30;0.30;;;1.70;99.90;;;;;;5036247;28;20442;-78
2022/02/08 02:54:01;;;;;;;0.30;0.30;;;1.80;99.90;;;;;;5035988;28;20486;-79
2022/02/08 02:56:28;;;;;;;1.13;1.03;;;1.70;99.90;;;;;;5035812;28;20454;-78
2022/02/08 02:59:01;;;;;;;0.30;0.30;;;1.80;99.90;;;;;;5035791;28;20451;-79
2022/02/08 03:01:33;;;;;;;0.30;0.30;;;1.70;99.90;;;;;;5036013;28;20470;-79
2022/02/08 03:04:21;;;;;;;0.30;0.20;;;1.70;99.90;;;;;;5035773;28;20481;-78
2022/02/08 03:18:25;;;;;;;0.30;0.20;;;1.40;99.90;;;;;;5035501;28;20814;-78
2022/02/08 03:20:50;;;;;;;0.30;0.30;;;1.40;99.90;;;;;;5035157;28;20538;-78
2022/02/08 03:23:17;;;;;;;0.30;0.30;;;1.30;99.90;;;;;;5035650;28;20465;-78
2022/02/08 03:25:44;;;;;;;0.30;0.30;;;1.20;99.90;;;;;;5035501;28;20454;-78
2022/02/08 03:28:10;;;;;;;0.30;0.30;;;1.20;99.90;;;;;;5035535;28;20447;-78
2022/02/08 03:30:39;;;;;;;0.30;0.30;;;1.20;99.90;;;;;;5035166;28;20439;-78
2022/02/08 03:33:07;;;;;;;0.30;0.30;;;1.10;99.90;;;;;;5034334;28;20454;-78
2022/02/08 03:35:34;;;;;;;0.30;0.30;;;1.10;99.90;;;;;;5035353;28;20454;-79
2022/02/08 03:38:04;;;;;;;0.30;0.20;;;1.00;99.90;;;;;;5035363;28;20473;-79
2022/02/08 03:40:39;;;;;;;0.30;0.20;;;1.10;99.90;;;;;;5035262;28;20898;-78
2022/02/08 03:43:15;;;;;;;0.30;0.30;;;1.00;99.90;;;;;;5035310;28;20434;-78
2022/02/08 03:45:46;;;;;;;0.30;0.30;;;1.00;99.90;;;;;;5035978;28;20466;-78
2022/02/08 03:48:16;;;;;;;0.30;0.20;;;1.00;99.90;;;;;;5035235;28;20485;-78
2022/02/08 03:50:45;;;;;;;0.30;0.30;;;1.00;99.90;;;;;;5035115;28;20513;-78
2022/02/08 03:53:12;;;;;;;0.30;0.30;;;0.90;99.90;;;;;;5035077;28;20461;-78
2022/02/08 03:55:39;;;;;;;0.30;0.30;;;0.90;99.90;;;;;;5034500;28;20486;-78
2022/02/08 03:58:06;;;;;;;0.30;0.30;;;0.90;99.90;;;;;;5034979;28;20454;-78
2022/02/08 04:00:41;;;;;;;0.30;0.30;;;1.00;99.90;;;;;;5034620;28;20820;-78
2022/02/08 04:03:09;;;;;;;0.30;0.30;;;1.00;99.90;;;;;;5034608;28;20879;-78
2022/02/08 04:05:40;;;;;;;0.30;0.30;;;1.10;99.90;;;;;;5034454;28;20960;-78
2022/02/08 04:08:10;;;;;;;0.30;0.30;;;1.20;99.90;;;;;;5034550;28;20432;-79
2022/02/08 04:10:37;;;;;;;0.30;0.30;;;1.30;99.90;;;;;;5034765;28;20431;-79
2022/02/08 04:13:11;;;;;;;0.30;0.30;;;1.40;99.90;;;;;;5034652;28;20533;-79
2022/02/08 04:15:51;;;;;;;0.30;0.20;;;1.40;99.90;;;;;;5035387;28;20435;-78
2022/02/08 04:32:17;;;;;;;0.30;0.30;;;1.60;99.90;;;;;;5034160;28;20898;-79
2022/02/08 04:34:53;;;;;;;0.30;0.30;;;1.60;99.90;;;;;;5034344;28;20469;-79
2022/02/08 04:43:02;;;;;;;0.30;0.27;;;1.60;99.90;;;;;;5025039;28;20435;-78
2022/02/08 04:45:34;;;;;;;0.30;0.30;;;1.60;99.90;;;;;;5034138;28;20838;-78
2022/02/08 04:48:07;;;;;;;0.30;0.20;;;1.50;99.90;;;;;;5034306;28;20431;-78
2022/02/08 04:50:37;;;;;;;0.30;0.30;;;1.50;99.90;;;;;;5034843;28;20434;-78
2022/02/08 04:53:10;;;;;;;0.30;0.30;;;1.40;99.90;;;;;;5034615;28;20454;-78
2022/02/08 04:55:45;;;;;;;0.30;0.30;;;1.40;99.90;;;;;;5033387;28;20478;-78
2022/02/08 04:58:22;;;;;;;0.30;0.30;;;1.40;99.90;;;;;;5033612;28;20434;-79
2022/02/08 05:01:01;;;;;;;0.30;0.30;;;1.40;99.90;;;;;;5033491;28;20477;-79
2022/02/08 05:34:28;;;;;;;0.30;0.30;;;2.00;99.90;;;;;;5033518;28;20444;-79
2022/02/08 05:42:41;;;;;;;0.30;0.30;;;2.10;99.90;;;;;;5033284;28;20845;-78
2022/02/08 05:45:23;;;;;;;0.40;0.40;;;2.10;99.90;;;;;;5033341;28;20458;-78
2022/02/08 05:47:52;;;;;;;0.30;0.20;;;2.10;99.90;;;;;;5033204;28;20481;-78
2022/02/08 05:50:26;;;;;;;0.30;0.27;;;2.20;99.90;;;;;;5033228;28;20549;-78
2022/02/08 05:53:05;;;;;;;0.30;0.20;;;2.20;99.90;;;;;;5032966;28;20952;-79
2022/02/08 05:55:34;;;;;;;0.30;0.30;;;2.20;99.90;;;;;;5032716;28;20588;-79
2022/02/08 05:58:01;;;;;;;0.30;0.30;;;2.20;99.90;;;;;;5037193;28;20463;-79
2022/02/08 06:00:29;;;;;;;0.30;0.30;;;2.20;99.90;;;;;;5036798;28;20822;-79
2022/02/08 06:02:59;;;;;;;0.40;0.40;;;2.30;99.90;;;;;;5037367;28;20790;-79
2022/02/08 06:05:26;;;;;;;0.30;0.30;;;2.30;99.90;;;;;;5036770;28;20450;-79
2022/02/08 06:07:52;;;;;;;0.30;0.20;;;2.30;99.90;;;;;;5036971;28;20488;-78
2022/02/08 06:10:19;;;;;;;0.30;0.20;;;2.30;99.90;;;;;;5037041;28;20438;-78
2022/02/08 06:12:50;;;;;;;0.30;0.30;;;2.30;99.90;;;;;;5036929;28;20446;-78
2022/02/08 06:15:19;;;;;;;0.50;0.50;;;2.20;99.90;;;;;;5036932;28;20533;-78
2022/02/08 06:17:46;;;;;;;0.30;0.20;;;2.20;99.90;;;;;;5036782;28;20474;-78
2022/02/08 06:20:14;;;;;;;0.30;0.30;;;2.20;99.90;;;;;;5036517;28;20950;-79
2022/02/08 06:22:42;;;;;;;0.30;0.30;;;2.30;99.90;;;;;;5036677;28;20456;-79
2022/02/08 06:25:12;;;;;;;0.30;0.20;;;2.30;99.90;;;;;;5036754;28;20453;-79
2022/02/08 06:27:40;;;;;;;0.40;0.40;;;2.30;99.90;;;;;;5037104;28;20857;-79
2022/02/08 06:30:10;;;;;;;0.30;0.30;;;2.40;99.90;;;;;;5036584;28;20438;-79
2022/02/08 06:32:37;;;;;;;0.77;0.77;;;2.40;99.90;;;;;;5036306;28;20848;-79
2022/02/08 06:35:09;;;;;;;0.30;0.30;;;2.40;99.90;;;;;;5036532;28;20457;-79
2022/02/08 06:37:38;;;;;;;0.30;0.30;;;2.40;99.90;;;;;;5036492;28;20474;-79
2022/02/08 06:40:06;;;;;;;0.30;0.20;;;2.40;99.90;;;;;;5036434;28;20450;-79
2022/02/08 06:42:33;;;;;;;0.30;0.20;;;2.50;99.90;;;;;;5036240;28;20478;-79
2022/02/08 06:45:02;;;;;;;0.50;0.40;;;2.50;99.90;;;;;;5036033;28;20450;-79
2022/02/08 06:47:31;;;;;;;0.30;0.20;;;2.50;99.90;;;;;;5036271;28;20494;-79
2022/02/08 06:49:58;;;;;;;0.30;0.30;;;2.50;99.90;;;;;;5036252;28;20454;-79
2022/02/08 06:52:25;;;;;;;0.30;0.20;;;2.50;99.90;;;;;;5036211;28;20454;-79
2022/02/08 06:54:52;;;;;;;0.30;0.30;;;2.60;99.90;;;;;;5035805;28;20501;-79
2022/02/08 06:57:18;;;;;;;0.30;0.20;;;2.60;99.90;;;;;;5036028;28;20477;-79
2022/02/08 06:59:52;;;;;;;0.30;0.20;;;2.60;99.90;;;;;;5036091;28;20455;-80
2022/02/08 07:02:19;;;;;;;0.30;0.30;;;2.60;99.90;;;;;;5036543;28;20839;-80
2022/02/08 07:04:47;;;;;;;0.30;0.20;;;2.50;99.90;;;;;;5035945;28;20450;-79
2022/02/08 07:07:16;;;;;;;0.30;0.20;;;2.50;99.90;;;;;;5035207;28;20466;-79
2022/02/08 07:09:43;;;;;;;0.30;0.30;;;2.60;99.90;;;;;;5035481;28;20441;-79
2022/02/08 07:12:11;;;;;;;0.50;0.33;;;2.50;99.90;;;;;;5035868;28;20496;-79
2022/02/08 07:14:38;;;;;;;0.30;0.20;;;2.50;99.90;;;;;;5035826;28;20454;-79
2022/02/08 07:17:05;;;;;;;0.30;0.30;;;2.50;99.90;;;;;;5035700;28;20470;-79
2022/02/08 07:19:32;;;;;;;0.30;0.30;;;2.50;99.90;;;;;;5035418;28;20965;-79
2022/02/08 07:22:00;;;;;;;0.30;0.20;;;2.70;99.90;;;;;;5035590;28;20494;-79
2022/02/08 07:24:27;;;;;;;0.30;0.30;;;2.70;99.90;;;;;;5035646;28;20795;-79
2022/02/08 07:26:55;;;;;;;0.30;0.20;;;2.70;99.90;;;;;;5035252;28;21005;-79
2022/02/08 07:29:22;;;;;;;0.30;0.20;;;2.70;99.90;;;;;;5035526;28;20446;-79
2022/02/08 07:31:52;;;;;;;0.30;0.30;;;2.80;99.90;;;;;;5035423;28;20451;-79
2022/02/08 07:34:22;;;;;;;0.30;0.30;;;2.90;99.90;;;;;;5035500;28;20531;-79
2022/02/08 07:36:57;;;;;;;0.30;0.30;;;3.00;99.90;;;;;;5035585;28;20862;-79
2022/02/08 07:39:35;;;;;;;0.30;0.30;;;3.00;99.90;;;;;;5035387;28;20426;-78
2022/02/08 07:42:02;;;;;;;0.30;0.30;;;3.00;99.90;;;;;;5034939;28;20506;-78
2022/02/08 07:44:28;;;;;;;0.30;0.20;;;3.10;99.90;;;;;;5034941;28;20458;-79
2022/02/08 07:46:55;;;;;;;0.40;0.40;;;3.10;99.90;;;;;;5035125;28;20474;-79
2022/02/08 07:49:22;;;;;;;0.30;0.20;;;3.20;99.90;;;;;;5034917;28;20446;-79
2022/02/08 07:51:48;;;;;;;0.30;0.30;;;3.20;99.90;;;;;;5034799;28;20450;-79
2022/02/08 07:54:15;;;;;;;0.30;0.20;;;3.20;99.90;;;;;;5034774;28;20482;-79
2022/02/08 07:56:43;;;;;;;0.30;0.20;;;3.20;99.90;;;;;;5034640;28;20466;-79
2022/02/08 07:59:10;;;;;;;0.30;0.30;;;3.10;99.90;;;;;;5034963;28;20450;-79
2022/02/08 08:01:37;;;;;;;0.30;0.30;;;3.20;99.90;;;;;;5034846;28;20505;-79
2022/02/08 08:04:04;;;;;;;0.30;0.30;;;3.20;99.90;;;;;;5034876;28;20453;-79
2022/02/08 08:06:30;;;;;;;0.30;0.20;;;3.20;99.90;;;;;;5034405;28;20990;-79
2022/02/08 08:08:58;;;;;;;0.30;0.30;;;3.30;99.90;;;;;;5034813;28;20435;-80
2022/02/08 08:11:24;;;;;;;0.40;0.40;;;3.20;99.90;;;;;;5035472;28;20860;-79
2022/02/08 08:14:01;;;;;;;0.30;0.20;;;3.20;99.90;;;;;;5034712;28;20431;-79
2022/02/08 08:16:40;;;;;;;0.30;0.20;;;3.20;99.90;;;;;;5034634;28;20474;-79
2022/02/08 08:19:21;;;;;;;0.30;0.20;;;3.20;99.90;;;;;;5034345;28;20430;-79
2022/02/08 08:21:48;;;;;;;0.40;0.30;;;3.10;99.90;;;;;;5034144;28;20818;-79
2022/02/08 08:24:15;;;;;;;0.30;0.30;;;3.30;99.90;;;;;;5034179;28;20430;-79
2022/02/08 08:26:42;;;;;;;0.30;0.30;;;3.40;99.90;;;;;;5034429;28;20463;-79
2022/02/08 08:29:10;;;;;;;0.30;0.20;;;3.50;99.90;;;;;;5034339;28;20433;-79
2022/02/08 08:31:37;;;;;;;0.30;0.20;;;3.60;99.90;;;;;;5034380;28;20435;-79
2022/02/08 08:34:03;;;;;;;0.40;0.40;;;3.80;99.90;;;;;;5034062;28;20914;-79
2022/02/08 08:36:30;;;;;;;0.30;0.20;;;3.90;99.90;;;;;;5033919;28;20985;-79
2022/02/08 08:38:57;;;;;;;0.30;0.30;;;4.00;99.90;;;;;;5034233;28;20885;-79
2022/02/08 08:41:30;;;;;;;0.30;0.30;;;4.00;99.90;;;;;;5034131;28;20435;-79
2022/02/08 08:52:33;;;;;;;0.30;0.20;;;4.30;99.90;;;;;;5090613;28;20494;-78
2022/02/08 08:54:59;;;;;;;0.40;0.30;;;4.40;99.90;;;;;;5090487;28;20965;-78
2022/02/08 08:57:27;;;;;;;0.40;0.40;;;4.50;99.90;;;;;;5090698;28;20845;-78
2022/02/08 08:59:54;;;;;;;0.30;0.23;;;4.50;99.90;;;;;;5090736;28;20440;-78
2022/02/08 09:02:22;;;;;;;0.30;0.20;;;4.70;99.90;;;;;;5090694;28;20440;-78
2022/02/08 09:04:51;;;;;;;0.30;0.20;;;5.10;99.90;;;;;;5091141;28;20455;-78
2022/02/08 09:07:18;;;;;;;0.30;0.30;;;5.70;99.90;;;;;;5090226;28;20998;-78
2022/02/08 09:09:46;;;;;;;0.30;0.20;;;6.50;99.90;;;;;;5090559;28;20455;-78
2022/02/08 09:12:24;;;;;;;0.30;0.20;;;7.30;99.90;;;;;;5091200;28;20452;-78
2022/02/08 09:15:24;;;;;;;0.30;0.20;;;8.30;99.90;;;;;;5090404;28;20436;-78
2022/02/08 09:18:19;;;;;;;0.30;0.20;;;9.60;99.90;;;;;;5090337;28;20486;-78
2022/02/08 09:21:14;;;;;;;0.30;0.20;;;10.50;99.90;;;;;;5090357;28;20444;-78
2022/02/08 09:23:58;;;;;;;0.30;0.30;;;10.70;99.90;;;;;;5089775;28;20532;-78
2022/02/08 09:26:46;;;;;;;0.30;0.20;;;11.60;97.70;;;;;;5090136;28;20521;-78
2022/02/08 09:29:22;;;;;;;0.40;0.30;;;11.90;95.00;;;;;;5090225;28;20827;-78
2022/02/08 09:31:55;;;;;;;0.30;0.20;;;12.20;92.40;;;;;;5090154;28;20427;-78
2022/02/08 09:34:23;;;;;;;0.30;0.30;;;13.10;90.40;;;;;;5090060;28;20440;-78
2022/02/08 09:36:50;;;;;;;0.30;0.20;;;13.50;85.00;;;;;;5089869;28;20488;-78
2022/02/08 09:39:17;;;;;;;1.37;0.60;;;13.80;83.00;;;;;;5090035;28;20436;-78
2022/02/08 09:41:47;;;;;;;0.40;0.37;;;14.80;80.00;;;;;;5090487;28;20428;-78
2022/02/08 09:44:17;;;;;;;0.30;0.30;;;14.60;74.00;;;;;;5089908;28;20778;-79
2022/02/08 09:46:43;;;;;;;0.50;0.40;;;14.50;72.80;;;;;;5089347;28;20839;-79
2022/02/08 09:49:11;;;;;;;2.20;0.40;;;15.20;73.00;;;;;;5089839;28;20428;-79
2022/02/08 09:51:44;;;;;;;1.00;0.30;;;15.80;69.70;;;;;;5089813;28;20451;-79
2022/02/08 09:54:11;;;;;;;0.37;0.30;;;16.30;67.30;;;;;;5090587;28;20445;-78
2022/02/08 09:56:37;;;;;;;1.50;0.43;;;16.50;64.40;;;;;;5085056;28;20865;-80
2022/02/08 09:59:05;;;;;;;1.60;0.40;;;16.30;62.10;;;;;;5076150;28;20440;-79
2022/02/08 10:01:31;;;;;;;0.30;0.30;;;16.00;63.50;;;;;;5076102;28;20461;-79
2022/02/08 10:04:01;;;;;;;0.40;0.30;;;16.20;62.80;;;;;;5076078;28;20429;-78
2022/02/08 10:06:30;;;;;;;0.30;0.30;;;15.30;64.80;;;;;;5075940;28;20472;-78
2022/02/08 10:09:02;;;;;;;0.50;0.50;;;15.20;65.20;;;;;;5075740;28;20436;-78
2022/02/08 10:11:35;;;;;;;0.40;0.33;;;15.10;63.20;;;;;;5075964;28;20425;-78
2022/02/08 10:14:16;;;;;;;0.40;0.40;;;15.30;64.70;;;;;;5075890;28;20429;-78
2022/02/08 10:22:32;;;;;;;0.40;0.40;;;17.30;63.40;;;;;;5075499;28;20404;-78
2022/02/08 10:25:03;;;;;;;1.03;0.30;;;17.80;58.20;;;;;;5075687;28;20429;-78
2022/02/08 10:27:34;;;;;;;0.50;0.50;;;17.80;58.80;;;;;;5075537;28;20475;-78
2022/02/08 10:30:27;;;;;;;0.30;0.30;;;17.40;58.50;;;;;;5075238;28;20433;-78
2022/02/08 10:38:22;;;;;;;0.30;0.30;;;14.80;61.90;;;;;;5075460;28;20405;-78
2022/02/08 10:40:55;;;;;;;0.53;0.50;;;14.40;63.40;;;;;;5075945;28;20436;-79
2022/02/08 10:43:22;;;;;;;0.30;0.30;;;14.20;65.10;;;;;;5075551;28;20429;-79
2022/02/08 10:45:49;;;;;;;0.40;0.30;;;14.20;67.10;;;;;;5074695;28;20476;-78
2022/02/08 10:48:22;;;;;;;0.30;0.30;;;14.20;67.00;;;;;;5075238;28;20453;-78
2022/02/08 10:50:53;;;;;;;0.97;0.87;;;13.70;66.50;;;;;;5075112;28;20792;-78
2022/02/08 10:53:23;;;;;;;0.37;0.33;;;13.40;67.90;;;;;;5074846;28;20465;-79
2022/02/08 10:55:59;;;;;;;0.30;0.30;;;13.20;69.70;;;;;;5074909;28;20547;-79
2022/02/08 10:58:32;;;;;;;0.30;0.27;;;13.10;70.50;;;;;;5075013;28;20835;-79
2022/02/08 11:01:04;;;;;;;0.30;0.20;;;13.30;71.20;;;;;;5074969;28;20433;-79
2022/02/08 11:03:38;;;;;;;0.30;0.30;;;13.30;70.10;;;;;;5074899;28;20429;-79
2022/02/08 11:06:17;;;;;;;0.30;0.30;;;13.30;69.80;;;;;;5074804;28;20524;-78
2022/02/08 11:11:57;;;;;;;0.30;0.30;;;12.60;73.60;;;;;;5063686;28;20530;-78
2022/02/08 11:14:39;;;;;;;0.37;0.30;;;12.20;75.50;;;;;;5075537;28;20759;-78
2022/02/08 11:17:46;;;;;;;0.30;0.30;;;11.80;77.20;;;;;;5074177;28;21049;-79
2022/02/08 11:20:23;;;;;;;0.30;0.30;;;11.60;76.90;;;;;;5074123;28;20461;-79
2022/02/08 11:22:56;;;;;;;0.30;0.20;;;11.70;79.10;;;;;;5074528;28;20480;-79
2022/02/08 11:25:27;;;;;;;0.30;0.20;;;11.70;79.20;;;;;;5074175;28;20440;-79
2022/02/08 11:28:09;;;;;;;0.30;0.30;;;11.90;81.60;;;;;;5074339;28;20472;-79
2022/02/08 11:30:45;;;;;;;0.40;0.30;;;11.80;82.70;;;;;;5074363;28;20440;-79
2022/02/08 11:33:34;;;;;;;0.40;0.30;;;11.80;84.30;;;;;;5074250;28;20437;-79
2022/02/08 11:39:23;;;;;;;0.40;0.30;;;11.80;85.90;;;;;;5074243;28;20409;-79
2022/02/08 11:44:56;;;;;;;0.30;0.30;;;11.90;85.20;;;;;;5073897;28;20959;-79
2022/02/08 11:47:38;;;;;;;1.43;1.33;;;11.90;87.50;;;;;;5073945;28;20469;-79
2022/02/08 11:50:27;;;;;;;0.30;0.20;;;11.90;87.60;;;;;;5073964;28;20484;-79
2022/02/08 11:53:24;;;;;;;0.40;0.30;;;11.80;88.60;;;;;;5073530;28;20425;-79
2022/02/08 11:59:00;;;;;;;0.30;0.20;;;11.70;89.50;;;;;;5073442;28;20759;-79
2022/02/08 12:01:47;;;;;;;0.30;0.20;;;11.60;89.90;;;;;;5074264;28;20858;-79
2022/02/08 12:04:32;;;;;;;0.40;0.30;;;11.60;90.50;;;;;;5073779;28;20476;-79
2022/02/08 12:07:12;;;;;;;0.30;0.30;;;11.60;91.00;;;;;;5073591;28;20983;-79
2022/02/08 12:09:47;;;;;;;1.03;0.40;;;11.60;91.20;;;;;;5073699;28;20895;-79
2022/02/08 12:34:43;;;;;;;0.30;0.20;;;11.70;94.20;;;;;;5071374;28;20425;-79
2022/02/08 12:48:55;;;;;;;0.30;0.30;;;11.00;95.50;;;;;;5073342;28;20488;-79
2022/02/08 12:52:24;;;;;;;0.30;0.30;;;10.80;96.30;;;;;;5072937;28;20919;-78
2022/02/08 12:55:04;;;;;;;0.30;0.30;;;10.60;96.80;;;;;;5072760;28;20440;-79
2022/02/08 12:57:40;;;;;;;0.30;0.20;;;10.60;98.00;;;;;;5072777;28;20546;-78
2022/02/08 13:00:26;;;;;;;0.30;0.30;;;10.60;98.80;;;;;;5073201;28;20440;-79
2022/02/08 13:03:15;;;;;;;0.40;0.40;;;10.60;99.50;;;;;;5072841;28;20429;-79
2022/02/08 13:24:46;;;;;;;0.30;0.20;;;10.40;99.90;;;;;;5090787;28;20500;-78
2022/02/08 14:01:42;;;;;;;0.40;0.30;;;10.30;99.90;;;;;;5090091;28;20401;-78
2022/02/08 14:07:13;;;;;;;0.30;0.30;;;10.30;99.90;;;;;;5064704;28;20479;-78
2022/02/08 14:09:58;;;;;;;0.30;0.20;;;10.30;99.90;;;;;;5089908;28;20799;-78
2022/02/08 14:18:10;;;;;;;0.30;0.30;;;10.00;99.90;;;;;;5089127;28;21001;-78
2022/02/08 14:23:52;;;;;;;0.30;0.30;;;9.90;99.90;;;;;;5076100;28;20424;-78
2022/02/08 14:31:59;;;;;;;0.30;0.20;;;9.70;99.90;;;;;;5073744;28;20790;-78
2022/02/08 14:37:30;;;;;;;0.70;0.30;;;9.60;99.90;;;;;;5075536;28;20475;-78
2022/02/08 15:10:04;;;;;;;0.30;0.20;;;9.10;99.90;;;;;;5075308;28;20520;-78
2022/02/08 15:12:34;;;;;;;0.30;0.20;;;9.00;99.90;;;;;;5074875;28;20947;-78
2022/02/08 15:15:09;;;;;;;0.30;0.20;;;9.00;99.90;;;;;;5075154;28;20535;-78
2022/02/08 15:17:35;;;;;;;0.30;0.30;;;9.00;99.90;;;;;;5074933;28;20490;-78
2022/02/08 15:20:06;;;;;;;0.30;0.30;;;9.00;99.90;;;;;;5074732;28;20450;-78
2022/02/08 15:22:33;;;;;;;0.30;0.30;;;9.00;99.90;;;;;;5075010;28;20432;-78
2022/02/08 15:25:01;;;;;;;0.30;0.20;;;9.00;99.90;;;;;;5074919;28;20444;-78
2022/02/08 15:27:28;;;;;;;0.40;0.30;;;9.10;99.90;;;;;;5074677;28;20514;-78
2022/02/08 15:29:56;;;;;;;0.30;0.27;;;9.00;99.90;;;;;;5074386;28;20451;-78
2022/02/08 15:32:23;;;;;;;0.30;0.20;;;9.00;99.90;;;;;;5073979;28;20496;-78
2022/02/08 15:34:50;;;;;;;0.30;0.20;;;8.90;99.90;;;;;;5074748;28;20448;-78
2022/02/08 15:37:18;;;;;;;0.30;0.30;;;8.90;99.90;;;;;;5074288;28;20983;-78
2022/02/08 15:39:44;;;;;;;0.30;0.20;;;8.80;99.90;;;;;;5074302;28;20940;-78
2022/02/08 15:42:11;;;;;;;0.30;0.30;;;8.80;99.90;;;;;;5074553;28;20441;-78
2022/02/08 15:44:43;;;;;;;0.30;0.30;;;8.70;99.90;;;;;;5074558;28;20443;-78
2022/02/08 15:47:12;;;;;;;0.30;0.30;;;8.70;99.90;;;;;;5074434;28;20474;-78
2022/02/08 15:49:44;;;;;;;0.30;0.20;;;8.70;99.90;;;;;;5074385;28;20944;-78
2022/02/08 15:52:18;;;;;;;0.30;0.30;;;8.60;99.90;;;;;;5074355;28;20444;-78
2022/02/08 15:54:50;;;;;;;0.30;0.20;;;8.60;99.90;;;;;;5074382;28;20524;-78
2022/02/08 15:58:01;;;;;;;0.80;0.40;;;8.50;99.90;;;;;;5074258;28;20502;-78
2022/02/08 16:00:48;;;;;;;0.30;0.20;;;8.50;99.90;;;;;;5073893;28;20943;-78
2022/02/08 16:06:38;;;;;;;0.30;0.30;;;8.40;99.90;;;;;;5074078;28;20448;-78
2022/02/08 16:08:57;;;;;;;0.40;0.30;;;8.40;99.90;;;;;;5073752;28;20469;-78
2022/02/08 16:14:15;;;;;;;0.30;0.20;;;8.30;99.90;;;;;;5073330;28;20530;-78
2022/02/08 16:16:54;;;;;;;0.30;0.20;;;8.30;99.90;;;;;;5073906;28;20866;-78
2022/02/08 16:19:31;;;;;;;0.40;0.40;;;8.20;99.90;;;;;;5073853;28;20465;-79
2022/02/08 16:22:24;;;;;;;0.40;0.40;;;8.20;99.90;;;;;;5073564;28;20478;-78
2022/02/08 16:24:56;;;;;;;0.30;0.20;;;8.20;99.90;;;;;;5073859;28;20429;-78
2022/02/08 16:27:40;;;;;;;0.70;0.30;;;8.10;99.90;;;;;;5073357;28;20563;-78
2022/02/08 16:47:30;;;;;;;0.30;0.30;;;7.90;99.90;;;;;;5073391;28;20448;-78
2022/02/08 16:49:59;;;;;;;0.40;0.30;;;7.90;99.90;;;;;;5072965;28;20440;-78
2022/02/08 16:55:29;;;;;;;0.30;0.27;;;7.80;99.90;;;;;;5062362;28;20437;-78
2022/02/08 16:58:09;;;;;;;0.30;0.20;;;7.80;99.90;;;;;;5073164;28;20484;-78
2022/02/08 17:00:39;;;;;;;0.30;0.20;;;7.80;99.90;;;;;;5073432;28;20442;-78
2022/02/08 17:03:08;;;;;;;0.30;0.20;;;7.80;99.90;;;;;;5073349;28;20449;-78
2022/02/08 17:05:34;;;;;;;0.30;0.30;;;7.80;99.90;;;;;;5073229;28;20445;-78
2022/02/08 17:08:01;;;;;;;0.30;0.20;;;7.80;99.90;;;;;;5072789;28;20975;-78
2022/02/08 17:10:34;;;;;;;0.30;0.30;;;7.80;99.90;;;;;;5073240;28;20543;-78
2022/02/08 17:13:10;;;;;;;0.30;0.20;;;7.80;99.90;;;;;;5073244;28;20437;-78
2022/02/08 17:15:53;;;;;;;0.30;0.30;;;7.80;99.90;;;;;;5072854;28;20970;-78
2022/02/08 17:35:36;;;;;;;0.30;0.30;;;7.80;99.90;;;;;;5073090;28;20404;-78
2022/02/08 17:46:05;;;;;;;0.40;0.30;;;7.70;99.90;;;;;;5072911;28;20490;-78
2022/02/08 17:48:35;;;;;;;0.40;0.30;;;7.70;99.90;;;;;;5072968;28;20472;-78
2022/02/08 17:51:03;;;;;;;0.30;0.20;;;7.70;99.90;;;;;;5072591;28;20926;-78
2022/02/08 17:53:29;;;;;;;0.30;0.20;;;7.70;99.90;;;;;;5072936;28;20441;-78
2022/02/08 17:55:56;;;;;;;1.30;0.73;;;7.70;99.90;;;;;;5076564;28;20469;-78
2022/02/08 17:58:23;;;;;;;0.30;0.20;;;7.70;99.90;;;;;;5076501;28;20896;-78
2022/02/08 18:00:50;;;;;;;0.30;0.20;;;7.60;99.90;;;;;;5076550;28;20452;-78
2022/02/08 18:03:17;;;;;;;0.30;0.30;;;7.60;99.90;;;;;;5077344;28;20452;-78
2022/02/08 18:05:45;;;;;;;0.30;0.20;;;7.60;99.90;;;;;;5076362;28;20455;-78
2022/02/08 18:08:13;;;;;;;0.30;0.20;;;7.60;99.90;;;;;;5076052;28;20495;-78
2022/02/08 18:10:40;;;;;;;0.40;0.30;;;7.60;99.90;;;;;;5076338;28;20509;-78
2022/02/08 18:13:11;;;;;;;0.50;0.30;;;7.60;99.90;;;;;;5076012;28;20441;-79
2022/02/08 18:15:38;;;;;;;0.30;0.30;;;7.60;99.90;;;;;;5075922;28;20900;-78